createdAt,value
2019-02-26T00:00:52.011Z,101904.33
2019-02-26T00:03:24.117Z,101903.34
2019-02-26T00:05:54.386Z,101903.33
2019-02-26T00:08:26.611Z,101897.02
2019-02-26T00:10:58.590Z,101893.92
2019-02-26T00:13:27.682Z,101890.80
2019-02-26T00:15:58.097Z,101888.85
2019-02-26T00:18:27.586Z,101890.23
2019-02-26T00:20:59.033Z,101886.98
2019-02-26T00:23:30.040Z,101886.69
2019-02-26T00:25:59.550Z,101887.41
2019-02-26T00:28:29.106Z,101891.03
2019-02-26T00:30:59.938Z,101888.65
2019-02-26T00:33:30.473Z,101882.06
2019-02-26T00:35:59.941Z,101880.67
2019-02-26T00:38:29.460Z,101866.31
2019-02-26T00:41:00.012Z,101874.84
2019-02-26T00:43:30.638Z,101881.25
2019-02-26T00:46:03.210Z,101881.90
2019-02-26T00:48:33.648Z,101879.16
2019-02-26T00:51:03.919Z,101874.56
2019-02-26T00:53:33.770Z,101877.32
2019-02-26T00:56:05.592Z,101874.45
2019-02-26T00:58:37.132Z,101878.89
2019-02-26T01:01:08.246Z,101874.14
2019-02-26T01:03:37.566Z,101874.70
2019-02-26T01:06:07.981Z,101881.27
2019-02-26T01:08:38.011Z,101880.96
2019-02-26T01:11:09.019Z,101875.20
2019-02-26T01:13:38.491Z,101880.05
2019-02-26T01:16:08.047Z,101877.90
2019-02-26T01:18:37.519Z,101874.07
2019-02-26T01:21:07.033Z,101866.26
2019-02-26T01:23:36.511Z,101855.34
2019-02-26T01:26:05.967Z,101852.22
2019-02-26T01:28:35.442Z,101841.66
2019-02-26T01:31:05.745Z,101843.98
2019-02-26T01:33:36.563Z,101842.86
2019-02-26T01:36:06.346Z,101833.31
2019-02-26T01:38:39.431Z,101830.35
2019-02-26T01:41:08.665Z,101828.67
2019-02-26T01:43:38.133Z,101828.53
2019-02-26T01:46:09.414Z,101824.90
2019-02-26T01:48:39.570Z,101818.91
2019-02-26T01:51:10.425Z,101811.45
2019-02-26T01:53:42.172Z,101813.94
2019-02-26T01:56:11.409Z,101802.15
2019-02-26T01:58:40.868Z,101797.94
2019-02-26T02:01:14.016Z,101800.36
2019-02-26T02:03:44.018Z,101803.11
2019-02-26T02:06:14.193Z,101805.34
2019-02-26T02:08:45.927Z,101803.66
2019-02-26T02:11:15.967Z,101797.81
2019-02-26T02:13:45.518Z,101787.57
2019-02-26T02:16:15.152Z,101779.37
2019-02-26T04:01:18.693Z,101812.66
2019-02-26T04:03:47.770Z,101810.80
2019-02-26T04:06:17.548Z,101817.84
2019-02-26T04:08:48.572Z,101819.60
2019-02-26T04:11:20.006Z,101815.48
2019-02-26T04:13:52.160Z,101819.14
2019-02-26T04:16:20.744Z,101809.23
2019-02-26T04:18:52.033Z,101820.84
2019-02-26T04:21:21.849Z,101816.39
2019-02-26T04:23:51.314Z,101812.41
2019-02-26T04:26:32.255Z,101809.69
2019-02-26T04:29:18.850Z,101805.52
2019-02-26T04:32:06.398Z,101792.02
2019-02-26T04:34:39.051Z,101782.02
2019-02-26T04:37:27.379Z,101776.15
2019-02-26T04:40:11.914Z,101779.91
2019-02-26T04:42:52.812Z,101777.60
2019-02-26T04:45:52.234Z,101785.39
2019-02-26T04:48:29.232Z,101788.08
2019-02-26T04:50:59.076Z,101795.77
2019-02-26T04:53:29.344Z,101783.48
2019-02-26T04:56:02.829Z,101788.36
2019-02-26T04:58:31.164Z,101794.34
2019-02-26T05:01:00.642Z,101812.48
2019-02-26T05:03:30.380Z,101819.33
2019-02-26T05:06:02.079Z,101817.48
2019-02-26T05:08:32.096Z,101809.91
2019-02-26T05:11:02.208Z,101801.41
2019-02-26T05:13:32.620Z,101798.45
2019-02-26T05:16:02.860Z,101799.32
2019-02-26T05:18:34.509Z,101803.88
2019-02-26T05:21:05.244Z,101801.84
2019-02-26T05:23:34.660Z,101790.91
2019-02-26T05:26:05.609Z,101785.90
2019-02-26T05:28:37.657Z,101780.84
2019-02-26T05:31:08.948Z,101779.26
2019-02-26T05:33:38.214Z,101770.62
2019-02-26T05:36:09.476Z,101773.91
2019-02-26T05:38:39.197Z,101767.02
2019-02-26T05:41:08.669Z,101769.07
2019-02-26T05:43:38.379Z,101764.55
2019-02-26T05:46:07.860Z,101763.67
2019-02-26T05:48:39.970Z,101767.65
2019-02-26T05:51:11.419Z,101764.23
2019-02-26T05:53:40.757Z,101766.97
2019-02-26T05:56:11.628Z,101763.36
2019-02-26T05:58:44.167Z,101768.87
2019-02-26T06:01:15.733Z,101766.52
2019-02-26T06:03:46.742Z,101767.91
2019-02-26T06:06:15.684Z,101764.93
2019-02-26T06:08:45.456Z,101765.09
2019-02-26T06:11:16.991Z,101774.98
2019-02-26T06:13:46.194Z,101772.00
2019-02-26T06:16:15.675Z,101769.86
2019-02-26T06:18:46.537Z,101772.83
2019-02-26T06:21:18.423Z,101783.02
2019-02-26T06:23:52.064Z,101775.86
2019-02-26T06:26:21.616Z,101773.61
2019-02-26T06:28:52.937Z,101782.48
2019-02-26T06:31:24.963Z,101780.83
2019-02-26T06:33:54.211Z,101774.50
2019-02-26T06:36:25.860Z,101767.77
2019-02-26T06:38:56.423Z,101774.48
2019-02-26T06:41:26.403Z,101780.65
2019-02-26T06:43:56.136Z,101781.01
2019-02-26T06:46:27.188Z,101783.29
2019-02-26T06:48:57.112Z,101786.26
2019-02-26T06:51:28.297Z,101785.16
2019-02-26T06:53:59.192Z,101776.66
2019-02-26T06:56:30.187Z,101780.95
2019-02-26T06:59:03.613Z,101778.23
2019-02-26T07:01:35.265Z,101769.58
2019-02-26T07:04:05.427Z,101772.29
2019-02-26T07:06:34.985Z,101762.88
2019-02-26T07:09:05.196Z,101766.70
2019-02-26T07:11:36.201Z,101764.48
2019-02-26T07:14:08.040Z,101756.00
2019-02-26T07:16:39.786Z,101762.52
2019-02-26T07:19:09.127Z,101755.41
2019-02-26T07:21:40.631Z,101746.33
2019-02-26T07:24:10.967Z,101747.85
2019-02-26T07:26:41.743Z,101739.09
2019-02-26T07:29:13.161Z,101736.42
2019-02-26T07:31:43.160Z,101733.41
2019-02-26T07:34:13.015Z,101740.08
2019-02-26T07:36:43.357Z,101732.48
2019-02-26T07:39:15.528Z,101742.42
2019-02-26T07:41:47.028Z,101753.48
2019-02-26T07:44:18.651Z,101758.69
2019-02-26T07:46:47.298Z,101757.86
2019-02-26T07:49:16.779Z,101746.60
2019-02-26T07:51:46.265Z,101734.33
2019-02-26T07:54:15.739Z,101739.61
2019-02-26T07:56:45.223Z,101745.39
2019-02-26T07:59:15.159Z,101754.25
2019-02-26T08:01:45.331Z,101747.42
2019-02-26T08:04:18.254Z,101747.89
2019-02-26T08:06:47.413Z,101744.41
2019-02-26T08:09:18.931Z,101753.41
2019-02-26T08:11:49.011Z,101754.38
2019-02-26T08:14:20.879Z,101746.67
2019-02-26T08:16:53.606Z,101754.70
2019-02-26T08:19:21.031Z,101758.85
2019-02-26T08:21:52.637Z,101755.87
2019-02-26T08:24:24.505Z,101764.68
2019-02-26T08:26:52.946Z,101768.77
2019-02-26T08:29:24.555Z,101774.91
2019-02-26T08:31:54.519Z,101778.45
2019-02-26T08:34:24.755Z,101774.11
2019-02-26T08:36:54.672Z,101780.19
2019-02-26T08:39:24.571Z,101770.27
2019-02-26T08:42:06.230Z,101766.64
2019-02-26T08:44:35.709Z,101764.30
2019-02-26T08:47:08.778Z,101768.09
2019-02-26T08:49:38.358Z,101768.39
2019-02-26T08:52:08.582Z,101792.45
2019-02-26T08:54:38.329Z,101794.30
2019-02-26T08:57:07.827Z,101786.08
2019-02-26T08:59:37.288Z,101786.08
2019-02-26T09:02:07.119Z,101775.87
2019-02-26T09:04:38.329Z,101774.13
2019-02-26T09:07:07.793Z,101774.13
2019-02-26T09:09:37.326Z,101772.27
2019-02-26T09:12:06.831Z,101781.51
2019-02-26T09:14:37.571Z,101783.13
2019-02-26T09:17:07.480Z,101779.81
2019-02-26T09:19:38.105Z,101780.62
2019-02-26T09:22:11.780Z,101781.04
2019-02-26T09:24:39.168Z,101781.47
2019-02-26T09:27:08.728Z,101772.19
2019-02-26T09:29:39.711Z,101770.97
2019-02-26T09:32:11.615Z,101773.50
2019-02-26T09:34:40.559Z,101771.72
2019-02-26T09:37:10.433Z,101787.18
2019-02-26T09:39:39.918Z,101790.58
2019-02-26T09:42:09.391Z,101793.44
2019-02-26T09:44:38.877Z,101792.53
2019-02-26T09:47:08.439Z,101792.53
2019-02-26T09:49:37.981Z,101786.87
2019-02-26T09:52:07.477Z,101774.55
2019-02-26T09:54:40.392Z,101778.77
2019-02-26T09:57:08.148Z,101772.45
2019-02-26T09:59:38.509Z,101774.36
2019-02-26T10:02:08.249Z,101778.43
2019-02-26T10:04:37.678Z,101778.42
2019-02-26T10:07:09.438Z,101769.48
2019-02-26T10:09:40.703Z,101768.62
2019-02-26T10:12:12.647Z,101767.65
2019-02-26T10:14:41.008Z,101773.27
2019-02-26T10:17:12.387Z,101767.98
2019-02-26T10:19:42.984Z,101772.88
2019-02-26T10:22:13.771Z,101771.51
2019-02-26T10:24:43.235Z,101775.32
2019-02-26T10:27:14.606Z,101774.12
2019-02-26T10:29:45.123Z,101770.83
2019-02-26T10:32:15.520Z,101768.14
2019-02-26T10:34:44.990Z,101771.45
2019-02-26T10:37:14.474Z,101774.30
2019-02-26T10:39:44.492Z,101769.58
2019-02-26T10:42:18.158Z,101769.52
2019-02-26T10:44:46.831Z,101770.88
2019-02-26T10:47:16.307Z,101774.41
2019-02-26T10:49:46.738Z,101771.22
2019-02-26T10:52:19.338Z,101775.61
2019-02-26T10:54:48.295Z,101767.62
2019-02-26T10:57:18.023Z,101763.97
2019-02-26T10:59:47.537Z,101762.05
2019-02-26T11:02:17.836Z,101752.28
2019-02-26T11:04:50.426Z,101752.09
2019-02-26T11:07:19.426Z,101746.13
2019-02-26T11:09:51.035Z,101747.64
2019-02-26T11:12:22.171Z,101755.17
2019-02-26T11:14:53.578Z,101756.89
2019-02-26T11:17:23.654Z,101749.27
2019-02-26T11:19:55.579Z,101737.95
2019-02-26T11:22:27.554Z,101742.20
2019-02-26T11:24:58.567Z,101733.48
2019-02-26T11:27:28.111Z,101727.12
2019-02-26T11:29:59.459Z,101721.95
2019-02-26T11:32:30.158Z,101723.91
2019-02-26T11:35:02.450Z,101705.90
2019-02-26T11:37:32.079Z,101712.41
2019-02-26T11:40:02.876Z,101711.06
2019-02-26T11:42:32.803Z,101719.66
2019-02-26T11:45:02.547Z,101717.39
2019-02-26T11:47:34.465Z,101715.03
2019-02-26T11:50:06.837Z,101712.23
2019-02-26T11:52:36.511Z,101717.66
2019-02-26T11:55:09.309Z,101717.81
2019-02-26T11:57:39.853Z,101715.49
2019-02-26T12:00:37.327Z,101696.33
2019-02-26T12:03:05.874Z,101693.19
2019-02-26T12:05:36.661Z,101696.81
2019-02-26T12:08:06.528Z,101685.73
2019-02-26T12:10:37.820Z,101679.88
2019-02-26T12:13:07.555Z,101673.55
2019-02-26T12:15:39.911Z,101675.35
2019-02-26T12:18:10.174Z,101673.81
2019-02-26T12:20:40.937Z,101675.84
2019-02-26T12:23:13.340Z,101682.42
2019-02-26T12:25:42.135Z,101677.34
2019-02-26T12:28:13.839Z,101665.78
2019-02-26T12:30:46.866Z,101666.95
2019-02-26T12:33:16.569Z,101663.50
2019-02-26T12:35:46.041Z,101669.77
2019-02-26T12:38:20.606Z,101676.41
2019-02-26T12:40:49.927Z,101675.84
2019-02-26T12:43:19.323Z,101681.59
2019-02-26T12:45:48.880Z,101673.58
2019-02-26T12:48:22.102Z,101680.93
2019-02-26T12:50:49.503Z,101674.98
2019-02-26T12:53:20.670Z,101671.20
2019-02-26T12:55:50.216Z,101671.20
2019-02-26T12:58:21.323Z,101664.88
2019-02-26T13:00:50.927Z,101662.53
2019-02-26T13:03:22.614Z,101658.48
2019-02-26T13:05:52.212Z,101655.95
2019-02-26T13:08:24.215Z,101665.88
2019-02-26T13:10:56.177Z,101664.25
2019-02-26T13:13:24.079Z,101659.33
2019-02-26T13:15:53.582Z,101654.45
2019-02-26T13:18:23.041Z,101651.80
2019-02-26T13:20:59.555Z,101656.55
2019-02-26T13:23:23.795Z,101654.06
2019-02-26T13:25:53.277Z,101654.55
2019-02-26T13:28:29.388Z,101654.78
2019-02-26T13:30:53.983Z,101652.64
2019-02-26T13:33:32.645Z,101652.94
2019-02-26T13:35:58.832Z,101658.98
2019-02-26T13:38:33.968Z,101658.45
2019-02-26T13:41:20.315Z,101660.01
2019-02-26T13:43:28.694Z,101660.01
2019-02-26T13:45:58.328Z,101650.39
2019-02-26T13:48:27.816Z,101650.07
2019-02-26T13:50:57.575Z,101656.36
2019-02-26T13:53:27.054Z,101654.63
2019-02-26T13:55:56.534Z,101645.27
2019-02-26T13:58:26.012Z,101639.36
2019-02-26T14:00:55.502Z,101637.64
2019-02-26T14:03:24.968Z,101640.37
2019-02-26T14:05:54.458Z,101629.94
2019-02-26T14:08:23.975Z,101627.81
2019-02-26T14:10:53.456Z,101615.83
2019-02-26T14:13:23.129Z,101615.83
2019-02-26T14:15:53.596Z,101618.07
2019-02-26T14:18:23.062Z,101618.07
2019-02-26T14:20:52.943Z,101605.52
2019-02-26T14:23:22.705Z,101606.02
2019-02-26T14:25:52.193Z,101600.10
2019-02-26T14:28:21.743Z,101602.19
2019-02-26T14:30:53.152Z,101600.75
2019-02-26T14:33:22.633Z,101605.67
2019-02-26T14:35:52.337Z,101605.53
2019-02-26T14:38:21.839Z,101608.97
2019-02-26T14:40:51.321Z,101610.38
2019-02-26T14:43:20.798Z,101607.24
2019-02-26T14:45:50.304Z,101610.22
2019-02-26T14:48:20.757Z,101599.86
2019-02-26T14:50:50.265Z,101593.78
2019-02-26T14:53:19.721Z,101592.27
2019-02-26T14:55:49.204Z,101593.78
2019-02-26T14:58:18.846Z,101593.78
2019-02-26T15:00:57.183Z,101597.15
2019-02-26T15:03:19.615Z,101603.34
2019-02-26T15:05:49.110Z,101609.48
2019-02-26T15:08:18.586Z,101609.48
2019-02-26T15:10:48.063Z,101606.91
2019-02-26T15:13:17.547Z,101595.91
2019-02-26T15:15:47.054Z,101596.17
2019-02-26T15:18:16.522Z,101600.28
2019-02-26T15:20:47.139Z,101596.51
2019-02-26T15:23:16.702Z,101600.64
2019-02-26T15:25:46.168Z,101610.83
2019-02-26T15:28:16.018Z,101610.97
2019-02-26T15:30:45.887Z,101607.09
2019-02-26T15:33:15.418Z,101607.09
2019-02-26T15:35:46.797Z,101613.05
2019-02-26T15:38:16.106Z,101613.05
2019-02-26T15:40:51.141Z,101608.03
2019-02-26T15:43:20.619Z,101605.25
2019-02-26T15:45:52.228Z,101604.76
2019-02-26T15:48:21.255Z,101612.61
2019-02-26T15:50:50.744Z,101617.52
2019-02-26T15:53:23.383Z,101620.12
2019-02-26T15:55:51.725Z,101625.63
2019-02-26T15:58:21.205Z,101623.92
2019-02-26T16:00:50.791Z,101618.78
2019-02-26T16:03:20.278Z,101619.52
2019-02-26T16:05:50.558Z,101608.09
2019-02-26T16:08:20.233Z,101608.09
2019-02-26T16:10:49.725Z,101613.01
2019-02-26T16:13:19.545Z,101612.63
2019-02-26T16:15:49.058Z,101626.74
2019-02-26T16:18:18.527Z,101623.41
2019-02-26T16:20:50.413Z,101620.34
2019-02-26T16:23:20.157Z,101623.48
2019-02-26T16:25:50.395Z,101617.73
2019-02-26T16:28:19.874Z,101611.22
2019-02-26T16:30:49.543Z,101602.16
2019-02-26T16:33:19.349Z,101604.39
2019-02-26T16:35:48.831Z,101596.91
2019-02-26T16:38:18.306Z,101595.66
2019-02-26T16:40:48.162Z,101599.33
2019-02-26T16:43:17.905Z,101601.27
2019-02-26T16:45:47.891Z,101601.74
2019-02-26T16:48:21.349Z,101605.76
2019-02-26T16:50:48.572Z,101603.30
2019-02-26T16:53:18.611Z,101608.91
2019-02-26T16:55:49.086Z,101618.34
2019-02-26T16:58:19.599Z,101621.88
2019-02-26T17:00:49.488Z,101614.65
2019-02-26T17:03:19.009Z,101609.72
2019-02-26T17:05:48.494Z,101613.05
2019-02-26T17:08:18.007Z,101626.00
2019-02-26T17:10:47.509Z,101622.06
2019-02-26T17:13:16.977Z,101622.44
2019-02-26T17:15:46.462Z,101622.78
2019-02-26T17:18:16.251Z,101624.39
2019-02-26T17:20:45.818Z,101625.59
2019-02-26T17:23:15.311Z,101615.41
2019-02-26T17:25:44.794Z,101623.50
2019-02-26T17:28:14.267Z,101623.08
2019-02-26T17:30:43.767Z,101626.71
2019-02-26T17:33:14.508Z,101626.00
2019-02-26T17:35:44.161Z,101632.35
2019-02-26T17:38:15.448Z,101624.50
2019-02-26T17:40:45.079Z,101634.52
2019-02-26T17:43:14.714Z,101633.77
2019-02-26T17:45:44.213Z,101636.20
2019-02-26T17:48:13.710Z,101632.38
2019-02-26T17:50:45.798Z,101642.02
2019-02-26T17:53:14.445Z,101646.28
2019-02-26T17:55:43.949Z,101646.05
2019-02-26T17:58:13.542Z,101641.27
2019-02-26T18:00:44.709Z,101643.91
2019-02-26T18:03:14.203Z,101638.10
2019-02-26T18:05:51.155Z,101639.16
2019-02-26T18:08:18.796Z,101640.13
2019-02-26T18:10:46.365Z,101640.56
2019-02-26T18:13:15.839Z,101642.88
2019-02-26T18:15:45.360Z,101642.61
2019-02-26T18:18:14.846Z,101658.10
2019-02-26T18:20:44.643Z,101656.43
2019-02-26T18:23:14.186Z,101650.89
2019-02-26T18:25:43.668Z,101654.97
2019-02-26T18:28:13.198Z,101654.67
2019-02-26T18:30:42.655Z,101655.13
2019-02-26T18:33:12.131Z,101650.84
2019-02-26T18:35:41.589Z,101669.74
2019-02-26T18:38:11.077Z,101672.97
2019-02-26T18:40:40.537Z,101674.67
2019-02-26T18:43:11.687Z,101682.74
2019-02-26T18:45:41.530Z,101686.41
2019-02-26T18:48:12.648Z,101689.23
2019-02-26T18:50:42.174Z,101694.33
2019-02-26T18:53:13.992Z,101694.19
2019-02-26T18:55:43.931Z,101687.68
2019-02-26T18:58:13.787Z,101689.16
2019-02-26T19:00:44.646Z,101686.66
2019-02-26T19:03:14.199Z,101686.59
2019-02-26T19:05:43.676Z,101684.34
2019-02-26T19:08:13.186Z,101688.67
2019-02-26T19:10:42.940Z,101689.92
2019-02-26T19:13:12.412Z,101686.84
2019-02-26T19:15:42.570Z,101684.41
2019-02-26T19:18:12.555Z,101695.59
2019-02-26T19:20:42.002Z,101692.98
2019-02-26T19:23:11.584Z,101699.34
2019-02-26T19:25:41.642Z,101688.16
2019-02-26T19:28:11.688Z,101691.27
2019-02-26T19:30:41.202Z,101685.48
2019-02-26T19:33:10.662Z,101684.38
2019-02-26T19:35:40.605Z,101693.44
2019-02-26T19:38:10.375Z,101693.78
2019-02-26T19:40:48.746Z,101689.30
2019-02-26T19:43:18.206Z,101698.56
2019-02-26T19:45:47.681Z,101696.04
2019-02-26T19:48:17.175Z,101690.25
2019-02-26T19:50:48.677Z,101695.42
2019-02-26T19:53:18.257Z,101686.80
2019-02-26T19:55:50.033Z,101687.49
2019-02-26T19:58:19.911Z,101680.83
2019-02-26T20:00:52.659Z,101676.94
2019-02-26T20:03:20.680Z,101677.73
2019-02-26T20:05:50.146Z,101683.52
2019-02-26T20:08:19.622Z,101675.14
2019-02-26T20:10:51.688Z,101670.43
2019-02-26T20:13:20.330Z,101669.95
2019-02-26T20:15:50.134Z,101668.10
2019-02-26T20:18:20.975Z,101671.94
2019-02-26T20:20:51.095Z,101667.45
2019-02-26T20:23:20.576Z,101670.14
2019-02-26T20:25:50.035Z,101669.19
2019-02-26T20:28:19.515Z,101672.88
2019-02-26T20:30:49.078Z,101669.91
2019-02-26T20:33:18.922Z,101671.46
2019-02-26T20:35:48.388Z,101666.36
2019-02-26T20:38:17.870Z,101672.48
2019-02-26T20:40:48.934Z,101676.24
2019-02-26T20:43:18.557Z,101670.27
2019-02-26T20:45:50.803Z,101673.23
2019-02-26T20:48:19.477Z,101677.95
2019-02-26T20:50:53.491Z,101665.78
2019-02-26T20:53:20.420Z,101663.98
2019-02-26T20:55:52.428Z,101662.14
2019-02-26T20:58:21.061Z,101658.54
2019-02-26T21:00:51.543Z,101650.62
2019-02-26T21:03:21.562Z,101657.64
2019-02-26T21:05:51.047Z,101656.13
2019-02-26T21:08:20.519Z,101656.45
2019-02-26T21:10:49.984Z,101657.98
2019-02-26T21:13:19.520Z,101652.08
2019-02-26T21:15:49.014Z,101650.81
2019-02-26T21:18:18.475Z,101651.08
2019-02-26T21:20:49.269Z,101653.41
2019-02-26T21:23:18.913Z,101646.75
2019-02-26T21:25:48.389Z,101647.43
2019-02-26T21:28:17.851Z,101654.00
2019-02-26T21:30:47.327Z,101646.50
2019-02-26T21:33:16.887Z,101642.25
2019-02-26T21:35:46.349Z,101640.66
2019-02-26T21:38:16.206Z,101642.63
2019-02-26T21:40:48.829Z,101636.64
2019-02-26T21:43:16.929Z,101629.72
2019-02-26T21:45:49.178Z,101626.87
2019-02-26T21:48:17.588Z,101631.23
2019-02-26T21:50:47.067Z,101618.73
2019-02-26T21:53:16.565Z,101617.53
2019-02-26T21:55:46.022Z,101616.34
2019-02-26T21:58:15.501Z,101613.51
2019-02-26T22:00:45.356Z,101613.05
2019-02-26T22:03:15.213Z,101620.76
2019-02-26T22:05:44.827Z,101620.95
2019-02-26T22:08:14.627Z,101622.02
2019-02-26T22:10:44.239Z,101616.50
2019-02-26T22:13:14.058Z,101618.45
2019-02-26T22:15:44.716Z,101610.41
2019-02-26T22:18:15.013Z,101609.33
2019-02-26T22:20:44.808Z,101611.72
2019-02-26T22:23:14.983Z,101614.01
2019-02-26T22:25:44.598Z,101613.73
2019-02-26T22:28:14.182Z,101615.47
2019-02-26T22:30:43.820Z,101612.80
2019-02-26T22:33:13.595Z,101609.08
2019-02-26T22:35:43.072Z,101606.14
2019-02-26T22:38:15.230Z,101600.55
2019-02-26T22:40:44.061Z,101609.05
2019-02-26T22:43:14.283Z,101612.80
2019-02-26T22:45:44.201Z,101608.01
2019-02-26T22:48:14.239Z,101607.61
2019-02-26T22:50:43.768Z,101612.98
2019-02-26T22:53:13.255Z,101601.61
2019-02-26T22:55:42.708Z,101608.50
2019-02-26T22:58:12.179Z,101612.77
2019-02-26T23:00:49.723Z,101616.07
2019-02-26T23:03:19.374Z,101617.52
2019-02-26T23:05:48.905Z,101617.12
2019-02-26T23:08:18.383Z,101622.33
2019-02-26T23:10:48.153Z,101623.06
2019-02-26T23:13:17.625Z,101610.14
2019-02-26T23:15:47.369Z,101608.88
2019-02-26T23:18:17.328Z,101612.73
2019-02-26T23:20:46.866Z,101615.73
2019-02-26T23:23:16.356Z,101612.28
2019-02-26T23:25:45.871Z,101612.45
2019-02-26T23:28:15.353Z,101612.92
2019-02-26T23:30:45.162Z,101612.23
2019-02-26T23:33:15.249Z,101614.98
2019-02-26T23:35:45.616Z,101614.80
2019-02-26T23:38:15.338Z,101619.65
2019-02-26T23:40:45.088Z,101620.77
2019-02-26T23:43:14.552Z,101622.63
2019-02-26T23:45:44.050Z,101630.81
2019-02-26T23:48:13.513Z,101626.13
2019-02-26T23:50:47.104Z,101622.66
2019-02-26T23:53:14.678Z,101623.07
2019-02-26T23:55:47.172Z,101628.96
2019-02-26T23:58:16.953Z,101626.66
